sensor_id;sensor_type;location;lat;lon;timestamp;temperature;humidity
13093;DHT22;6612;49.568;11.000;2023-12-14T00:00:45;10.40;82.50
13093;DHT22;6612;49.568;11.000;2023-12-14T00:03:13;10.40;82.70
13093;DHT22;6612;49.568;11.000;2023-12-14T00:05:40;10.40;82.80
13093;DHT22;6612;49.568;11.000;2023-12-14T00:08:07;10.40;83.10
13093;DHT22;6612;49.568;11.000;2023-12-14T00:10:34;10.50;83.30
13093;DHT22;6612;49.568;11.000;2023-12-14T00:13:01;10.50;83.40
13093;DHT22;6612;49.568;11.000;2023-12-14T00:15:30;10.50;83.60
13093;DHT22;6612;49.568;11.000;2023-12-14T00:17:57;10.50;83.60
13093;DHT22;6612;49.568;11.000;2023-12-14T00:20:25;10.60;83.80
13093;DHT22;6612;49.568;11.000;2023-12-14T00:22:52;10.60;83.80
13093;DHT22;6612;49.568;11.000;2023-12-14T00:25:19;10.60;83.90
13093;DHT22;6612;49.568;11.000;2023-12-14T00:27:46;10.70;83.80
13093;DHT22;6612;49.568;11.000;2023-12-14T00:30:13;10.70;83.60
13093;DHT22;6612;49.568;11.000;2023-12-14T00:32:40;10.70;83.40
13093;DHT22;6612;49.568;11.000;2023-12-14T00:35:08;10.70;83.20
13093;DHT22;6612;49.568;11.000;2023-12-14T00:37:36;10.70;82.90
13093;DHT22;6612;49.568;11.000;2023-12-14T00:40:03;10.70;82.20
13093;DHT22;6612;49.568;11.000;2023-12-14T00:42:30;10.70;81.60
13093;DHT22;6612;49.568;11.000;2023-12-14T00:44:57;10.70;80.80
13093;DHT22;6612;49.568;11.000;2023-12-14T00:47:24;10.60;79.90
13093;DHT22;6612;49.568;11.000;2023-12-14T00:49:52;10.60;79.40
13093;DHT22;6612;49.568;11.000;2023-12-14T00:52:19;10.50;78.70
13093;DHT22;6612;49.568;11.000;2023-12-14T00:54:47;10.50;78.10
13093;DHT22;6612;49.568;11.000;2023-12-14T00:57:14;10.40;77.50
13093;DHT22;6612;49.568;11.000;2023-12-14T00:59:41;10.30;77.20
13093;DHT22;6612;49.568;11.000;2023-12-14T01:02:08;10.20;76.80
13093;DHT22;6612;49.568;11.000;2023-12-14T01:04:35;10.10;76.50
13093;DHT22;6612;49.568;11.000;2023-12-14T01:07:02;10.00;76.30
13093;DHT22;6612;49.568;11.000;2023-12-14T01:09:30;10.00;76.30
13093;DHT22;6612;49.568;11.000;2023-12-14T01:11:58;9.90;77.70
13093;DHT22;6612;49.568;11.000;2023-12-14T01:14:25;9.80;78.10
13093;DHT22;6612;49.568;11.000;2023-12-14T01:16:52;9.80;78.90
13093;DHT22;6612;49.568;11.000;2023-12-14T01:19:19;9.70;79.60
13093;DHT22;6612;49.568;11.000;2023-12-14T01:21:46;9.70;80.60
13093;DHT22;6612;49.568;11.000;2023-12-14T01:24:13;9.70;81.30
13093;DHT22;6612;49.568;11.000;2023-12-14T01:26:40;9.70;82.00
13093;DHT22;6612;49.568;11.000;2023-12-14T01:29:08;9.70;82.60
13093;DHT22;6612;49.568;11.000;2023-12-14T01:31:37;9.80;83.00
13093;DHT22;6612;49.568;11.000;2023-12-14T01:34:04;9.80;83.40
13093;DHT22;6612;49.568;11.000;2023-12-14T01:36:31;9.80;83.70
13093;DHT22;6612;49.568;11.000;2023-12-14T01:38:58;9.90;84.20
13093;DHT22;6612;49.568;11.000;2023-12-14T01:41:25;9.90;84.30
13093;DHT22;6612;49.568;11.000;2023-12-14T01:43:51;9.90;84.40
13093;DHT22;6612;49.568;11.000;2023-12-14T01:46:20;10.00;83.40
13093;DHT22;6612;49.568;11.000;2023-12-14T01:48:47;10.00;83.40
13093;DHT22;6612;49.568;11.000;2023-12-14T01:51:14;10.00;83.60
13093;DHT22;6612;49.568;11.000;2023-12-14T01:53:41;10.10;83.90
13093;DHT22;6612;49.568;11.000;2023-12-14T01:56:08;10.10;84.00
13093;DHT22;6612;49.568;11.000;2023-12-14T01:58:35;10.10;84.00
13093;DHT22;6612;49.568;11.000;2023-12-14T02:01:06;10.20;84.20
13093;DHT22;6612;49.568;11.000;2023-12-14T02:03:43;10.20;84.00
13093;DHT22;6612;49.568;11.000;2023-12-14T02:06:10;10.30;84.20
13093;DHT22;6612;49.568;11.000;2023-12-14T02:08:37;10.30;84.40
13093;DHT22;6612;49.568;11.000;2023-12-14T02:11:04;10.30;84.40
13093;DHT22;6612;49.568;11.000;2023-12-14T02:13:31;10.40;84.30
13093;DHT22;6612;49.568;11.000;2023-12-14T02:15:59;10.40;84.10
13093;DHT22;6612;49.568;11.000;2023-12-14T02:18:26;10.40;83.80
13093;DHT22;6612;49.568;11.000;2023-12-14T02:20:54;10.40;83.80
13093;DHT22;6612;49.568;11.000;2023-12-14T02:23:22;10.40;83.50
13093;DHT22;6612;49.568;11.000;2023-12-14T02:25:49;10.50;83.60
13093;DHT22;6612;49.568;11.000;2023-12-14T02:28:16;10.50;83.80
13093;DHT22;6612;49.568;11.000;2023-12-14T02:30:43;10.50;83.70
13093;DHT22;6612;49.568;11.000;2023-12-14T02:33:10;10.50;83.60
13093;DHT22;6612;49.568;11.000;2023-12-14T02:35:38;10.50;83.50
13093;DHT22;6612;49.568;11.000;2023-12-14T02:38:05;10.50;83.40
13093;DHT22;6612;49.568;11.000;2023-12-14T02:40:33;10.50;83.40
13093;DHT22;6612;49.568;11.000;2023-12-14T02:43:00;10.50;83.20
13093;DHT22;6612;49.568;11.000;2023-12-14T02:45:27;10.50;83.40
13093;DHT22;6612;49.568;11.000;2023-12-14T02:47:54;10.50;83.40
13093;DHT22;6612;49.568;11.000;2023-12-14T02:50:21;10.50;83.30
13093;DHT22;6612;49.568;11.000;2023-12-14T02:52:48;10.50;83.10
13093;DHT22;6612;49.568;11.000;2023-12-14T02:55:15;10.50;83.00
13093;DHT22;6612;49.568;11.000;2023-12-14T02:57:43;10.50;82.90
13093;DHT22;6612;49.568;11.000;2023-12-14T03:00:11;10.50;82.60
13093;DHT22;6612;49.568;11.000;2023-12-14T03:02:39;10.60;83.00
13093;DHT22;6612;49.568;11.000;2023-12-14T03:05:06;10.50;83.20
13093;DHT22;6612;49.568;11.000;2023-12-14T03:07:33;10.50;83.40
13093;DHT22;6612;49.568;11.000;2023-12-14T03:10:00;10.50;83.60
13093;DHT22;6612;49.568;11.000;2023-12-14T03:12:28;10.60;83.80
13093;DHT22;6612;49.568;11.000;2023-12-14T03:14:57;10.60;83.80
13093;DHT22;6612;49.568;11.000;2023-12-14T03:17:24;10.60;83.60
13093;DHT22;6612;49.568;11.000;2023-12-14T03:19:51;10.60;83.90
13093;DHT22;6612;49.568;11.000;2023-12-14T03:22:18;10.60;83.90
13093;DHT22;6612;49.568;11.000;2023-12-14T03:24:45;10.60;83.90
13093;DHT22;6612;49.568;11.000;2023-12-14T03:27:12;10.70;84.00
13093;DHT22;6612;49.568;11.000;2023-12-14T03:29:39;10.70;84.00
13093;DHT22;6612;49.568;11.000;2023-12-14T03:32:08;10.70;83.90
13093;DHT22;6612;49.568;11.000;2023-12-14T03:34:35;10.70;83.40
13093;DHT22;6612;49.568;11.000;2023-12-14T03:37:02;10.70;83.50
13093;DHT22;6612;49.568;11.000;2023-12-14T03:39:29;10.70;83.30
13093;DHT22;6612;49.568;11.000;2023-12-14T03:41:56;10.70;83.20
13093;DHT22;6612;49.568;11.000;2023-12-14T03:44:23;10.70;83.20
13093;DHT22;6612;49.568;11.000;2023-12-14T03:46:51;10.70;83.10
13093;DHT22;6612;49.568;11.000;2023-12-14T03:49:21;10.70;83.10
13093;DHT22;6612;49.568;11.000;2023-12-14T03:51:48;10.70;82.80
13093;DHT22;6612;49.568;11.000;2023-12-14T03:54:15;10.70;83.10
13093;DHT22;6612;49.568;11.000;2023-12-14T03:56:42;10.70;83.00
13093;DHT22;6612;49.568;11.000;2023-12-14T03:59:09;10.70;82.90
13093;DHT22;6612;49.568;11.000;2023-12-14T04:01:36;10.70;82.60
13093;DHT22;6612;49.568;11.000;2023-12-14T04:04:05;10.70;82.30
13093;DHT22;6612;49.568;11.000;2023-12-14T04:06:33;10.70;82.00
13093;DHT22;6612;49.568;11.000;2023-12-14T04:09:00;10.60;81.50
13093;DHT22;6612;49.568;11.000;2023-12-14T04:11:27;10.60;81.50
13093;DHT22;6612;49.568;11.000;2023-12-14T04:13:55;10.60;81.10
13093;DHT22;6612;49.568;11.000;2023-12-14T04:16:22;10.50;80.60
13093;DHT22;6612;49.568;11.000;2023-12-14T04:18:49;10.50;80.30
13093;DHT22;6612;49.568;11.000;2023-12-14T04:21:16;10.50;80.10
13093;DHT22;6612;49.568;11.000;2023-12-14T04:23:45;10.40;79.70
13093;DHT22;6612;49.568;11.000;2023-12-14T04:26:12;10.40;79.30
13093;DHT22;6612;49.568;11.000;2023-12-14T04:28:39;10.30;79.30
13093;DHT22;6612;49.568;11.000;2023-12-14T04:31:09;10.30;79.50
13093;DHT22;6612;49.568;11.000;2023-12-14T04:33:37;10.20;79.80
13093;DHT22;6612;49.568;11.000;2023-12-14T04:36:04;10.20;80.30
13093;DHT22;6612;49.568;11.000;2023-12-14T04:38:31;10.10;80.60
13093;DHT22;6612;49.568;11.000;2023-12-14T04:41:00;10.10;81.20
13093;DHT22;6612;49.568;11.000;2023-12-14T04:43:27;10.20;81.50
13093;DHT22;6612;49.568;11.000;2023-12-14T04:45:55;10.10;81.80
13093;DHT22;6612;49.568;11.000;2023-12-14T04:48:22;10.10;81.90
13093;DHT22;6612;49.568;11.000;2023-12-14T04:50:49;10.20;82.10
13093;DHT22;6612;49.568;11.000;2023-12-14T04:53:16;10.10;81.90
13093;DHT22;6612;49.568;11.000;2023-12-14T04:55:43;10.10;81.60
13093;DHT22;6612;49.568;11.000;2023-12-14T04:58:11;10.10;81.30
13093;DHT22;6612;49.568;11.000;2023-12-14T05:00:38;10.10;80.70
13093;DHT22;6612;49.568;11.000;2023-12-14T05:03:05;10.10;80.60
13093;DHT22;6612;49.568;11.000;2023-12-14T05:05:32;10.10;80.50
13093;DHT22;6612;49.568;11.000;2023-12-14T05:07:59;10.00;80.20
13093;DHT22;6612;49.568;11.000;2023-12-14T05:10:26;10.00;80.20
13093;DHT22;6612;49.568;11.000;2023-12-14T05:12:53;10.00;79.30
13093;DHT22;6612;49.568;11.000;2023-12-14T05:15:22;10.00;78.90
13093;DHT22;6612;49.568;11.000;2023-12-14T05:17:48;9.90;79.40
13093;DHT22;6612;49.568;11.000;2023-12-14T05:20:15;9.80;79.40
13093;DHT22;6612;49.568;11.000;2023-12-14T05:22:42;9.80;79.50
13093;DHT22;6612;49.568;11.000;2023-12-14T05:25:10;9.70;79.60
13093;DHT22;6612;49.568;11.000;2023-12-14T05:27:37;9.70;79.90
13093;DHT22;6612;49.568;11.000;2023-12-14T05:30:05;9.70;80.20
13093;DHT22;6612;49.568;11.000;2023-12-14T05:32:33;9.60;80.30
13093;DHT22;6612;49.568;11.000;2023-12-14T05:35:00;9.60;80.60
13093;DHT22;6612;49.568;11.000;2023-12-14T05:37:27;9.60;81.20
13093;DHT22;6612;49.568;11.000;2023-12-14T05:39:54;9.60;81.40
13093;DHT22;6612;49.568;11.000;2023-12-14T05:42:21;9.50;81.50
13093;DHT22;6612;49.568;11.000;2023-12-14T05:44:48;9.60;81.60
13093;DHT22;6612;49.568;11.000;2023-12-14T05:47:15;9.50;81.40
13093;DHT22;6612;49.568;11.000;2023-12-14T05:49:44;9.50;81.30
13093;DHT22;6612;49.568;11.000;2023-12-14T05:52:11;9.50;81.00
13093;DHT22;6612;49.568;11.000;2023-12-14T05:54:38;9.50;81.20
13093;DHT22;6612;49.568;11.000;2023-12-14T05:57:06;9.50;81.40
13093;DHT22;6612;49.568;11.000;2023-12-14T05:59:33;9.50;81.80
13093;DHT22;6612;49.568;11.000;2023-12-14T06:02:00;9.50;82.10
13093;DHT22;6612;49.568;11.000;2023-12-14T06:04:28;9.50;82.40
13093;DHT22;6612;49.568;11.000;2023-12-14T06:06:56;9.50;82.70
13093;DHT22;6612;49.568;11.000;2023-12-14T06:09:23;9.50;82.70
13093;DHT22;6612;49.568;11.000;2023-12-14T06:11:57;9.50;82.80
13093;DHT22;6612;49.568;11.000;2023-12-14T06:14:24;9.50;82.70
13093;DHT22;6612;49.568;11.000;2023-12-14T06:16:51;9.60;82.80
13093;DHT22;6612;49.568;11.000;2023-12-14T06:19:18;9.60;83.60
13093;DHT22;6612;49.568;11.000;2023-12-14T06:21:45;9.60;83.00
13093;DHT22;6612;49.568;11.000;2023-12-14T06:24:14;9.60;83.40
13093;DHT22;6612;49.568;11.000;2023-12-14T06:26:41;9.60;83.60
13093;DHT22;6612;49.568;11.000;2023-12-14T06:29:08;9.60;83.90
13093;DHT22;6612;49.568;11.000;2023-12-14T06:31:36;9.60;83.80
13093;DHT22;6612;49.568;11.000;2023-12-14T06:34:03;9.70;83.70
13093;DHT22;6612;49.568;11.000;2023-12-14T06:36:30;9.70;83.40
13093;DHT22;6612;49.568;11.000;2023-12-14T06:38:57;9.70;83.40
13093;DHT22;6612;49.568;11.000;2023-12-14T06:41:27;9.70;83.60
13093;DHT22;6612;49.568;11.000;2023-12-14T06:43:55;9.70;83.50
13093;DHT22;6612;49.568;11.000;2023-12-14T06:46:22;9.80;83.90
13093;DHT22;6612;49.568;11.000;2023-12-14T06:48:49;9.80;84.20
13093;DHT22;6612;49.568;11.000;2023-12-14T06:51:16;9.80;84.30
13093;DHT22;6612;49.568;11.000;2023-12-14T06:53:43;9.80;84.30
13093;DHT22;6612;49.568;11.000;2023-12-14T06:56:11;9.80;84.40
13093;DHT22;6612;49.568;11.000;2023-12-14T06:58:41;9.80;84.50
13093;DHT22;6612;49.568;11.000;2023-12-14T07:01:12;9.90;84.40
13093;DHT22;6612;49.568;11.000;2023-12-14T07:03:40;9.90;84.40
13093;DHT22;6612;49.568;11.000;2023-12-14T07:06:07;9.90;84.80
13093;DHT22;6612;49.568;11.000;2023-12-14T07:08:38;10.00;84.00
13093;DHT22;6612;49.568;11.000;2023-12-14T07:11:05;10.00;84.00
13093;DHT22;6612;49.568;11.000;2023-12-14T07:13:32;10.00;84.10
13093;DHT22;6612;49.568;11.000;2023-12-14T07:16:04;10.10;84.10
13093;DHT22;6612;49.568;11.000;2023-12-14T07:18:31;10.10;83.90
13093;DHT22;6612;49.568;11.000;2023-12-14T07:20:58;10.10;84.00
13093;DHT22;6612;49.568;11.000;2023-12-14T07:23:25;10.10;84.00
13093;DHT22;6612;49.568;11.000;2023-12-14T07:25:52;10.10;84.00
13093;DHT22;6612;49.568;11.000;2023-12-14T07:28:19;10.20;84.10
13093;DHT22;6612;49.568;11.000;2023-12-14T07:30:47;10.20;84.10
13093;DHT22;6612;49.568;11.000;2023-12-14T07:33:14;10.20;84.00
13093;DHT22;6612;49.568;11.000;2023-12-14T07:35:41;10.20;83.60
13093;DHT22;6612;49.568;11.000;2023-12-14T07:38:09;10.20;83.60
13093;DHT22;6612;49.568;11.000;2023-12-14T07:40:36;10.30;83.40
13093;DHT22;6612;49.568;11.000;2023-12-14T07:43:04;10.30;83.10
13093;DHT22;6612;49.568;11.000;2023-12-14T07:45:31;10.30;83.00
13093;DHT22;6612;49.568;11.000;2023-12-14T07:47:58;10.20;82.80
13093;DHT22;6612;49.568;11.000;2023-12-14T07:50:26;10.20;82.70
13093;DHT22;6612;49.568;11.000;2023-12-14T07:52:53;10.20;82.50
13093;DHT22;6612;49.568;11.000;2023-12-14T07:55:21;10.20;82.70
13093;DHT22;6612;49.568;11.000;2023-12-14T07:57:48;10.20;82.80
13093;DHT22;6612;49.568;11.000;2023-12-14T08:00:16;10.20;83.20
13093;DHT22;6612;49.568;11.000;2023-12-14T08:02:43;10.30;83.60
13093;DHT22;6612;49.568;11.000;2023-12-14T08:05:10;10.30;84.00
13093;DHT22;6612;49.568;11.000;2023-12-14T08:07:38;10.30;84.00
13093;DHT22;6612;49.568;11.000;2023-12-14T08:10:06;10.30;84.00
13093;DHT22;6612;49.568;11.000;2023-12-14T08:12:34;10.30;84.30
13093;DHT22;6612;49.568;11.000;2023-12-14T08:15:01;10.40;84.50
13093;DHT22;6612;49.568;11.000;2023-12-14T08:17:28;10.40;84.60
13093;DHT22;6612;49.568;11.000;2023-12-14T08:19:55;10.40;84.80
13093;DHT22;6612;49.568;11.000;2023-12-14T08:22:22;10.50;85.20
13093;DHT22;6612;49.568;11.000;2023-12-14T08:24:51;10.50;85.30
13093;DHT22;6612;49.568;11.000;2023-12-14T08:27:18;10.50;84.90
13093;DHT22;6612;49.568;11.000;2023-12-14T08:29:45;10.60;85.30
13093;DHT22;6612;49.568;11.000;2023-12-14T08:32:12;10.60;85.10
13093;DHT22;6612;49.568;11.000;2023-12-14T08:34:40;10.60;85.20
13093;DHT22;6612;49.568;11.000;2023-12-14T08:37:07;10.70;85.40
13093;DHT22;6612;49.568;11.000;2023-12-14T08:39:34;10.70;86.10
13093;DHT22;6612;49.568;11.000;2023-12-14T08:42:03;10.80;86.50
13093;DHT22;6612;49.568;11.000;2023-12-14T08:44:30;10.90;86.30
13093;DHT22;6612;49.568;11.000;2023-12-14T08:46:57;10.90;86.50
13093;DHT22;6612;49.568;11.000;2023-12-14T08:49:24;11.00;86.50
13093;DHT22;6612;49.568;11.000;2023-12-14T08:51:51;11.00;86.60
13093;DHT22;6612;49.568;11.000;2023-12-14T08:54:18;11.10;87.00
13093;DHT22;6612;49.568;11.000;2023-12-14T08:56:45;11.10;86.80
13093;DHT22;6612;49.568;11.000;2023-12-14T08:59:14;11.20;87.00
13093;DHT22;6612;49.568;11.000;2023-12-14T09:01:41;11.20;86.80
13093;DHT22;6612;49.568;11.000;2023-12-14T09:04:08;11.30;87.30
13093;DHT22;6612;49.568;11.000;2023-12-14T09:06:35;11.30;87.20
13093;DHT22;6612;49.568;11.000;2023-12-14T09:09:02;11.40;87.40
13093;DHT22;6612;49.568;11.000;2023-12-14T09:11:29;11.50;87.70
13093;DHT22;6612;49.568;11.000;2023-12-14T09:13:57;11.50;87.80
13093;DHT22;6612;49.568;11.000;2023-12-14T09:16:25;11.60;87.90
13093;DHT22;6612;49.568;11.000;2023-12-14T09:18:52;11.70;87.50
13093;DHT22;6612;49.568;11.000;2023-12-14T09:21:19;11.70;87.60
13093;DHT22;6612;49.568;11.000;2023-12-14T09:23:46;11.80;87.50
13093;DHT22;6612;49.568;11.000;2023-12-14T09:26:14;11.90;87.50
13093;DHT22;6612;49.568;11.000;2023-12-14T09:28:41;11.90;87.10
13093;DHT22;6612;49.568;11.000;2023-12-14T09:31:08;12.00;87.40
13093;DHT22;6612;49.568;11.000;2023-12-14T09:33:36;12.00;87.40
13093;DHT22;6612;49.568;11.000;2023-12-14T09:36:04;12.10;87.20
13093;DHT22;6612;49.568;11.000;2023-12-14T09:38:31;12.10;87.40
13093;DHT22;6612;49.568;11.000;2023-12-14T09:40:58;12.20;87.40
13093;DHT22;6612;49.568;11.000;2023-12-14T09:43:25;12.20;86.70
13093;DHT22;6612;49.568;11.000;2023-12-14T09:45:54;12.30;86.50
13093;DHT22;6612;49.568;11.000;2023-12-14T09:48:22;12.30;86.20
13093;DHT22;6612;49.568;11.000;2023-12-14T09:50:51;12.30;86.30
13093;DHT22;6612;49.568;11.000;2023-12-14T09:53:17;12.40;86.00
13093;DHT22;6612;49.568;11.000;2023-12-14T09:55:45;12.40;86.70
13093;DHT22;6612;49.568;11.000;2023-12-14T09:58:12;12.40;87.10
13093;DHT22;6612;49.568;11.000;2023-12-14T10:00:40;12.50;87.30
13093;DHT22;6612;49.568;11.000;2023-12-14T10:03:22;12.50;86.70
13093;DHT22;6612;49.568;11.000;2023-12-14T10:05:51;12.60;85.30
13093;DHT22;6612;49.568;11.000;2023-12-14T10:08:20;12.60;86.50
13093;DHT22;6612;49.568;11.000;2023-12-14T10:10:49;12.60;86.50
13093;DHT22;6612;49.568;11.000;2023-12-14T10:13:18;12.60;85.70
13093;DHT22;6612;49.568;11.000;2023-12-14T10:15:47;12.70;85.40
13093;DHT22;6612;49.568;11.000;2023-12-14T10:18:21;12.70;84.40
13093;DHT22;6612;49.568;11.000;2023-12-14T10:20:51;12.70;83.40
13093;DHT22;6612;49.568;11.000;2023-12-14T10:23:18;12.70;84.40
13093;DHT22;6612;49.568;11.000;2023-12-14T10:25:45;12.70;85.30
13093;DHT22;6612;49.568;11.000;2023-12-14T10:28:13;12.70;85.70
13093;DHT22;6612;49.568;11.000;2023-12-14T10:30:40;12.80;86.60
13093;DHT22;6612;49.568;11.000;2023-12-14T10:33:07;12.80;86.10
13093;DHT22;6612;49.568;11.000;2023-12-14T10:35:34;12.80;86.10
13093;DHT22;6612;49.568;11.000;2023-12-14T10:38:04;12.90;85.90
13093;DHT22;6612;49.568;11.000;2023-12-14T10:40:32;12.90;84.60
13093;DHT22;6612;49.568;11.000;2023-12-14T10:42:59;12.90;84.60
13093;DHT22;6612;49.568;11.000;2023-12-14T10:45:30;12.90;84.00
13093;DHT22;6612;49.568;11.000;2023-12-14T10:47:59;12.90;83.10
13093;DHT22;6612;49.568;11.000;2023-12-14T10:50:28;12.90;83.20
13093;DHT22;6612;49.568;11.000;2023-12-14T10:52:56;12.90;82.70
13093;DHT22;6612;49.568;11.000;2023-12-14T10:55:28;12.90;83.40
13093;DHT22;6612;49.568;11.000;2023-12-14T10:57:57;12.90;82.60
13093;DHT22;6612;49.568;11.000;2023-12-14T11:00:24;12.90;83.80
13093;DHT22;6612;49.568;11.000;2023-12-14T11:02:52;12.90;84.20
13093;DHT22;6612;49.568;11.000;2023-12-14T11:05:18;12.90;84.30
13093;DHT22;6612;49.568;11.000;2023-12-14T11:07:53;12.90;84.70
13093;DHT22;6612;49.568;11.000;2023-12-14T11:10:22;13.00;84.50
13093;DHT22;6612;49.568;11.000;2023-12-14T11:13:01;13.00;84.50
13093;DHT22;6612;49.568;11.000;2023-12-14T11:15:29;13.00;82.70
13093;DHT22;6612;49.568;11.000;2023-12-14T11:18:21;13.00;83.80
13093;DHT22;6612;49.568;11.000;2023-12-14T11:20:49;13.00;81.90
13093;DHT22;6612;49.568;11.000;2023-12-14T11:23:18;13.00;83.60
13093;DHT22;6612;49.568;11.000;2023-12-14T11:25:53;13.00;83.30
13093;DHT22;6612;49.568;11.000;2023-12-14T11:28:22;13.00;83.60
13093;DHT22;6612;49.568;11.000;2023-12-14T11:30:49;13.00;83.20
13093;DHT22;6612;49.568;11.000;2023-12-14T11:33:16;13.00;83.90
13093;DHT22;6612;49.568;11.000;2023-12-14T11:35:43;13.10;84.10
13093;DHT22;6612;49.568;11.000;2023-12-14T11:38:11;13.10;84.30
13093;DHT22;6612;49.568;11.000;2023-12-14T11:40:39;13.10;84.20
13093;DHT22;6612;49.568;11.000;2023-12-14T11:43:06;13.10;84.40
13093;DHT22;6612;49.568;11.000;2023-12-14T11:45:35;13.20;84.30
13093;DHT22;6612;49.568;11.000;2023-12-14T11:48:03;13.20;83.50
13093;DHT22;6612;49.568;11.000;2023-12-14T11:50:32;13.20;83.70
13093;DHT22;6612;49.568;11.000;2023-12-14T11:53:00;13.20;83.40
13093;DHT22;6612;49.568;11.000;2023-12-14T11:55:29;13.20;83.20
13093;DHT22;6612;49.568;11.000;2023-12-14T11:57:57;13.10;83.00
13093;DHT22;6612;49.568;11.000;2023-12-14T12:00:25;13.10;82.80
13093;DHT22;6612;49.568;11.000;2023-12-14T12:03:07;13.10;82.60
13093;DHT22;6612;49.568;11.000;2023-12-14T12:05:37;13.10;81.20
13093;DHT22;6612;49.568;11.000;2023-12-14T12:08:05;13.10;82.00
13093;DHT22;6612;49.568;11.000;2023-12-14T12:10:32;13.10;82.70
13093;DHT22;6612;49.568;11.000;2023-12-14T12:13:01;13.10;82.70
13093;DHT22;6612;49.568;11.000;2023-12-14T12:15:28;13.10;82.20
13093;DHT22;6612;49.568;11.000;2023-12-14T12:17:58;13.10;82.70
13093;DHT22;6612;49.568;11.000;2023-12-14T12:20:25;13.10;82.00
13093;DHT22;6612;49.568;11.000;2023-12-14T12:22:52;13.00;82.10
13093;DHT22;6612;49.568;11.000;2023-12-14T12:25:19;13.00;81.90
13093;DHT22;6612;49.568;11.000;2023-12-14T12:27:48;13.00;81.70
13093;DHT22;6612;49.568;11.000;2023-12-14T12:30:15;13.00;81.70
13093;DHT22;6612;49.568;11.000;2023-12-14T12:32:42;13.00;81.60
13093;DHT22;6612;49.568;11.000;2023-12-14T12:35:11;13.00;81.50
13093;DHT22;6612;49.568;11.000;2023-12-14T12:37:39;13.00;81.10
13093;DHT22;6612;49.568;11.000;2023-12-14T12:40:07;12.90;81.60
13093;DHT22;6612;49.568;11.000;2023-12-14T12:42:34;12.90;81.70
13093;DHT22;6612;49.568;11.000;2023-12-14T12:45:01;12.90;81.90
13093;DHT22;6612;49.568;11.000;2023-12-14T12:47:28;12.90;81.80
13093;DHT22;6612;49.568;11.000;2023-12-14T12:49:55;12.90;81.70
13093;DHT22;6612;49.568;11.000;2023-12-14T12:52:23;12.90;81.50
13093;DHT22;6612;49.568;11.000;2023-12-14T12:54:51;12.90;81.10
13093;DHT22;6612;49.568;11.000;2023-12-14T12:57:18;12.80;81.10
13093;DHT22;6612;49.568;11.000;2023-12-14T12:59:45;12.80;81.00
13093;DHT22;6612;49.568;11.000;2023-12-14T13:02:12;12.80;80.90
13093;DHT22;6612;49.568;11.000;2023-12-14T13:04:39;12.80;80.90
13093;DHT22;6612;49.568;11.000;2023-12-14T13:07:06;12.80;81.00
13093;DHT22;6612;49.568;11.000;2023-12-14T13:09:34;12.70;80.90
13093;DHT22;6612;49.568;11.000;2023-12-14T13:12:03;12.70;80.60
13093;DHT22;6612;49.568;11.000;2023-12-14T13:14:30;12.70;81.20
13093;DHT22;6612;49.568;11.000;2023-12-14T13:16:58;12.70;81.40
13093;DHT22;6612;49.568;11.000;2023-12-14T13:19:25;12.70;81.30
13093;DHT22;6612;49.568;11.000;2023-12-14T13:21:54;12.70;81.20
13093;DHT22;6612;49.568;11.000;2023-12-14T13:24:23;12.70;81.00
13093;DHT22;6612;49.568;11.000;2023-12-14T13:26:51;12.70;80.90
13093;DHT22;6612;49.568;11.000;2023-12-14T13:29:18;12.60;80.30
13093;DHT22;6612;49.568;11.000;2023-12-14T13:31:46;12.60;80.50
13093;DHT22;6612;49.568;11.000;2023-12-14T13:34:14;12.50;80.30
13093;DHT22;6612;49.568;11.000;2023-12-14T13:36:41;12.50;80.10
13093;DHT22;6612;49.568;11.000;2023-12-14T13:39:08;12.50;79.80
13093;DHT22;6612;49.568;11.000;2023-12-14T13:41:35;12.40;79.60
13093;DHT22;6612;49.568;11.000;2023-12-14T13:44:03;12.40;79.70
13093;DHT22;6612;49.568;11.000;2023-12-14T13:46:30;12.40;79.60
13093;DHT22;6612;49.568;11.000;2023-12-14T13:48:57;12.30;79.90
13093;DHT22;6612;49.568;11.000;2023-12-14T13:51:25;12.30;80.00
13093;DHT22;6612;49.568;11.000;2023-12-14T13:53:52;12.20;80.00
13093;DHT22;6612;49.568;11.000;2023-12-14T13:56:19;12.20;80.10
13093;DHT22;6612;49.568;11.000;2023-12-14T13:58:46;12.20;80.10
13093;DHT22;6612;49.568;11.000;2023-12-14T14:01:15;12.20;80.20
13093;DHT22;6612;49.568;11.000;2023-12-14T14:03:42;12.10;80.00
13093;DHT22;6612;49.568;11.000;2023-12-14T14:06:11;12.10;80.50
13093;DHT22;6612;49.568;11.000;2023-12-14T14:08:38;12.10;80.60
13093;DHT22;6612;49.568;11.000;2023-12-14T14:11:05;12.10;80.70
13093;DHT22;6612;49.568;11.000;2023-12-14T14:13:32;12.10;80.90
13093;DHT22;6612;49.568;11.000;2023-12-14T14:15:59;12.10;81.00
13093;DHT22;6612;49.568;11.000;2023-12-14T14:18:28;12.10;81.10
13093;DHT22;6612;49.568;11.000;2023-12-14T14:20:55;12.10;80.90
13093;DHT22;6612;49.568;11.000;2023-12-14T14:23:22;12.00;81.10
13093;DHT22;6612;49.568;11.000;2023-12-14T14:25:51;12.00;81.10
13093;DHT22;6612;49.568;11.000;2023-12-14T14:28:19;12.00;80.90
13093;DHT22;6612;49.568;11.000;2023-12-14T14:30:46;12.00;81.20
13093;DHT22;6612;49.568;11.000;2023-12-14T14:33:14;12.00;81.20
13093;DHT22;6612;49.568;11.000;2023-12-14T14:35:45;12.00;81.20
13093;DHT22;6612;49.568;11.000;2023-12-14T14:38:12;12.00;80.90
13093;DHT22;6612;49.568;11.000;2023-12-14T14:40:39;12.00;81.20
13093;DHT22;6612;49.568;11.000;2023-12-14T14:43:07;12.00;81.10
13093;DHT22;6612;49.568;11.000;2023-12-14T14:45:34;12.00;81.10
13093;DHT22;6612;49.568;11.000;2023-12-14T14:48:03;11.90;80.90
13093;DHT22;6612;49.568;11.000;2023-12-14T14:50:34;12.00;81.10
13093;DHT22;6612;49.568;11.000;2023-12-14T14:53:02;11.90;80.90
13093;DHT22;6612;49.568;11.000;2023-12-14T14:55:29;11.90;80.50
13093;DHT22;6612;49.568;11.000;2023-12-14T14:57:56;11.90;80.60
13093;DHT22;6612;49.568;11.000;2023-12-14T15:00:23;11.90;80.60
13093;DHT22;6612;49.568;11.000;2023-12-14T15:02:51;11.90;80.50
13093;DHT22;6612;49.568;11.000;2023-12-14T15:05:18;11.90;80.60
13093;DHT22;6612;49.568;11.000;2023-12-14T15:07:45;11.80;80.50
13093;DHT22;6612;49.568;11.000;2023-12-14T15:10:13;11.80;80.50
13093;DHT22;6612;49.568;11.000;2023-12-14T15:12:40;11.80;80.10
13093;DHT22;6612;49.568;11.000;2023-12-14T15:15:08;11.80;80.50
13093;DHT22;6612;49.568;11.000;2023-12-14T15:17:35;11.80;80.50
13093;DHT22;6612;49.568;11.000;2023-12-14T15:20:03;11.80;80.40
13093;DHT22;6612;49.568;11.000;2023-12-14T15:22:31;11.70;80.30
13093;DHT22;6612;49.568;11.000;2023-12-14T15:24:58;11.70;80.20
13093;DHT22;6612;49.568;11.000;2023-12-14T15:27:26;11.70;80.20
13093;DHT22;6612;49.568;11.000;2023-12-14T15:29:56;11.70;80.00
13093;DHT22;6612;49.568;11.000;2023-12-14T15:32:23;11.70;80.20
13093;DHT22;6612;49.568;11.000;2023-12-14T15:34:50;11.60;80.20